createdAt,value
2022-12-19T00:00:33.471Z,1.60
2022-12-19T00:03:01.728Z,1.60
2022-12-19T00:05:30.011Z,1.70
2022-12-19T00:07:58.948Z,1.70
2022-12-19T00:10:29.989Z,1.60
2022-12-19T00:12:58.143Z,1.70
2022-12-19T00:15:27.977Z,1.70
2022-12-19T00:17:56.173Z,1.70
2022-12-19T00:20:24.370Z,1.70
2022-12-19T00:22:52.605Z,1.70
2022-12-19T00:25:20.784Z,1.70
2022-12-19T00:27:50.209Z,1.70
2022-12-19T00:30:18.827Z,1.70
2022-12-19T00:32:48.795Z,1.80
2022-12-19T00:35:17.550Z,1.70
2022-12-19T00:37:49.657Z,1.80
2022-12-19T00:40:18.587Z,1.70
2022-12-19T00:42:53.255Z,1.80
2022-12-19T00:45:22.043Z,1.80
2022-12-19T00:47:51.573Z,1.80
2022-12-19T00:50:19.763Z,1.80
2022-12-19T00:52:48.394Z,1.90
2022-12-19T00:55:19.378Z,1.90
2022-12-19T00:57:49.221Z,1.90
2022-12-19T01:00:18.413Z,1.90
2022-12-19T01:02:46.876Z,1.90
2022-12-19T01:05:16.768Z,1.90
2022-12-19T01:07:44.987Z,1.90
2022-12-19T01:10:13.230Z,1.90
2022-12-19T01:12:46.149Z,2.00
2022-12-19T01:15:15.448Z,2.00
2022-12-19T01:17:45.053Z,2.00
2022-12-19T01:20:17.631Z,2.10
2022-12-19T01:22:49.455Z,2.10
2022-12-19T01:25:18.743Z,2.10
2022-12-19T01:27:47.008Z,2.10
2022-12-19T01:30:15.391Z,2.10
2022-12-19T01:32:43.583Z,2.10
2022-12-19T01:35:19.788Z,2.20
2022-12-19T01:37:51.826Z,2.20
2022-12-19T01:40:24.559Z,2.20
2022-12-19T01:42:52.924Z,2.20
2022-12-19T01:45:33.430Z,2.30
2022-12-19T01:48:15.036Z,2.30
2022-12-19T01:50:56.995Z,2.30
2022-12-19T01:53:48.515Z,2.30
2022-12-19T01:56:20.589Z,2.30
2022-12-19T01:59:01.767Z,2.30
2022-12-19T02:01:40.880Z,2.40
2022-12-19T02:04:20.974Z,2.40
2022-12-19T02:06:50.221Z,2.40
2022-12-19T02:09:20.168Z,2.50
2022-12-19T02:11:53.155Z,2.50
2022-12-19T02:14:22.030Z,2.50
2022-12-19T02:17:00.352Z,2.50
2022-12-19T02:20:03.863Z,2.50
2022-12-19T02:22:45.326Z,2.60
2022-12-19T02:25:44.039Z,2.70
2022-12-19T02:28:34.024Z,2.70
2022-12-19T02:31:16.398Z,2.70
2022-12-19T02:33:55.608Z,2.70
2022-12-19T02:36:35.802Z,2.70
2022-12-19T02:39:10.972Z,2.80
2022-12-19T02:41:44.354Z,2.70
2022-12-19T02:44:25.039Z,2.80
2022-12-19T02:46:55.433Z,2.90
2022-12-19T02:49:30.922Z,2.90
2022-12-19T02:52:10.596Z,2.90
2022-12-19T02:54:44.791Z,3.00
2022-12-19T02:57:21.377Z,3.00
2022-12-19T03:00:03.345Z,3.00
2022-12-19T03:02:46.568Z,3.00
2022-12-19T03:05:32.558Z,3.00
2022-12-19T03:08:08.103Z,3.10
2022-12-19T03:10:41.990Z,3.10
2022-12-19T03:13:13.842Z,3.00
2022-12-19T03:15:43.159Z,3.10
2022-12-19T03:18:13.051Z,3.10
2022-12-19T03:20:47.010Z,3.10
2022-12-19T03:23:15.912Z,3.10
2022-12-19T03:25:48.362Z,3.20
2022-12-19T03:28:22.922Z,3.30
2022-12-19T03:30:51.654Z,3.30
2022-12-19T03:33:23.231Z,3.30
2022-12-19T03:35:53.483Z,3.40
2022-12-19T03:38:22.802Z,3.40
2022-12-19T03:40:52.052Z,3.50
2022-12-19T03:43:21.192Z,3.60
2022-12-19T03:45:58.467Z,3.60
2022-12-19T03:48:34.297Z,3.60
2022-12-19T03:51:10.593Z,3.60
2022-12-19T03:53:49.158Z,3.70
2022-12-19T03:56:26.708Z,3.60
2022-12-19T03:59:01.524Z,3.70
2022-12-19T04:01:30.554Z,3.60
2022-12-19T04:04:01.477Z,3.70
2022-12-19T04:06:32.681Z,3.70
2022-12-19T04:09:01.926Z,3.80
2022-12-19T04:11:41.830Z,3.80
2022-12-19T04:14:13.498Z,3.80
2022-12-19T04:16:48.012Z,3.80
2022-12-19T04:19:23.118Z,3.80
2022-12-19T04:21:57.614Z,3.80
2022-12-19T04:24:30.428Z,3.90
2022-12-19T04:26:59.897Z,3.80
2022-12-19T04:29:30.088Z,3.90
2022-12-19T04:31:58.707Z,3.90
2022-12-19T04:34:28.376Z,3.90
2022-12-19T04:36:56.706Z,3.90
2022-12-19T04:39:24.983Z,3.80
2022-12-19T04:41:54.693Z,3.80
2022-12-19T04:44:23.389Z,3.90
2022-12-19T04:46:51.759Z,3.90
2022-12-19T04:49:20.437Z,3.90
2022-12-19T04:51:50.095Z,3.90
2022-12-19T04:54:18.470Z,4.00
2022-12-19T04:56:46.796Z,4.00
2022-12-19T04:59:15.007Z,4.00
2022-12-19T05:01:43.282Z,4.00
2022-12-19T05:04:11.723Z,4.00
2022-12-19T05:06:39.972Z,4.10
2022-12-19T05:09:11.707Z,4.10
2022-12-19T05:11:40.103Z,4.10
2022-12-19T05:14:08.380Z,4.10
2022-12-19T05:16:36.553Z,4.10
2022-12-19T05:19:04.775Z,4.10
2022-12-19T05:21:33.056Z,4.20
2022-12-19T05:24:01.247Z,4.20
2022-12-19T05:26:30.888Z,4.20
2022-12-19T05:28:59.087Z,4.10
2022-12-19T05:31:27.819Z,4.20
2022-12-19T05:33:56.419Z,4.10
2022-12-19T05:36:30.694Z,4.10
2022-12-19T05:39:00.692Z,4.20
2022-12-19T05:41:30.274Z,4.30
2022-12-19T05:43:58.559Z,4.30
2022-12-19T05:46:27.432Z,4.30
2022-12-19T05:48:55.856Z,4.30
2022-12-19T05:51:24.538Z,4.30
2022-12-19T05:53:52.755Z,4.40
2022-12-19T05:56:22.734Z,4.40
2022-12-19T05:58:52.386Z,4.50
2022-12-19T06:01:22.757Z,4.60
2022-12-19T06:03:51.196Z,4.60
2022-12-19T06:06:20.919Z,4.60
2022-12-19T06:08:49.344Z,4.80
2022-12-19T06:11:17.579Z,4.80
2022-12-19T06:13:45.758Z,4.90
2022-12-19T06:16:16.769Z,5.00
2022-12-19T06:18:46.193Z,5.00
2022-12-19T06:21:16.573Z,5.00
2022-12-19T06:23:45.911Z,5.00
2022-12-19T06:26:19.522Z,5.00
2022-12-19T06:28:48.667Z,5.00
2022-12-19T06:31:18.830Z,5.00
2022-12-19T06:33:47.069Z,5.00
2022-12-19T06:36:19.789Z,5.00
2022-12-19T06:38:47.988Z,5.10
2022-12-19T06:41:34.404Z,5.00
2022-12-19T06:44:04.822Z,5.10
2022-12-19T06:46:35.256Z,5.10
2022-12-19T06:49:03.886Z,5.10
2022-12-19T06:51:32.337Z,5.10
2022-12-19T06:54:00.576Z,5.20
2022-12-19T06:56:29.147Z,5.20
2022-12-19T06:58:57.426Z,5.20
2022-12-19T07:01:42.019Z,5.20
2022-12-19T07:04:13.492Z,5.20
2022-12-19T07:06:47.352Z,5.20
2022-12-19T07:09:17.258Z,5.20
2022-12-19T07:11:45.486Z,5.20
2022-12-19T07:14:13.694Z,5.20
2022-12-19T07:16:43.631Z,5.30
2022-12-19T07:19:12.593Z,5.40
2022-12-19T07:21:42.214Z,5.40
2022-12-19T07:24:11.319Z,5.40
2022-12-19T07:26:39.811Z,5.40
2022-12-19T07:29:08.373Z,5.40
2022-12-19T07:31:36.901Z,5.40
2022-12-19T07:34:06.627Z,5.50
2022-12-19T07:36:34.924Z,5.50
2022-12-19T07:39:03.218Z,5.50
2022-12-19T07:41:31.834Z,5.50
2022-12-19T07:44:00.661Z,5.60
2022-12-19T07:46:30.919Z,5.60
2022-12-19T07:49:02.073Z,5.60
2022-12-19T07:51:31.697Z,5.60
2022-12-19T07:53:59.924Z,5.80
2022-12-19T07:56:28.779Z,5.80
2022-12-19T07:58:57.154Z,5.80
2022-12-19T08:01:25.555Z,5.80
2022-12-19T08:03:57.047Z,5.80
2022-12-19T08:06:26.835Z,5.80
2022-12-19T08:08:57.109Z,5.90
2022-12-19T08:11:27.822Z,6.00
2022-12-19T08:13:56.354Z,6.00
2022-12-19T08:16:27.732Z,6.00
2022-12-19T08:18:56.687Z,6.00
2022-12-19T08:21:25.802Z,6.00
2022-12-19T08:23:54.215Z,6.00
2022-12-19T08:26:26.303Z,6.00
2022-12-19T08:28:55.538Z,6.00
2022-12-19T08:31:25.680Z,6.10
2022-12-19T08:33:54.965Z,6.10
2022-12-19T08:36:23.662Z,6.20
2022-12-19T08:38:52.212Z,6.20
2022-12-19T08:41:20.850Z,6.20
2022-12-19T08:43:52.731Z,6.20
2022-12-19T08:46:22.165Z,6.20
2022-12-19T08:48:50.998Z,6.30
2022-12-19T08:51:19.931Z,6.30
2022-12-19T08:53:48.421Z,6.40
2022-12-19T08:56:18.420Z,6.40
2022-12-19T08:58:47.163Z,6.40
2022-12-19T09:01:19.945Z,6.40
2022-12-19T09:04:24.377Z,6.40
2022-12-19T09:06:37.760Z,6.40
2022-12-19T09:09:06.811Z,6.50
2022-12-19T09:11:36.230Z,6.40
2022-12-19T09:14:20.817Z,6.50
2022-12-19T09:16:51.192Z,6.50
2022-12-19T09:19:19.618Z,6.50
2022-12-19T09:21:47.825Z,6.60
2022-12-19T09:24:16.028Z,6.60
2022-12-19T09:26:45.690Z,6.60
2022-12-19T09:29:19.940Z,6.60
2022-12-19T09:31:56.378Z,6.60
2022-12-19T09:34:37.073Z,6.70
2022-12-19T09:37:07.724Z,6.70
2022-12-19T09:39:36.817Z,6.80
2022-12-19T09:42:22.155Z,6.80
2022-12-19T09:45:21.245Z,6.80
2022-12-19T09:48:01.832Z,6.90
2022-12-19T09:50:43.477Z,6.90
2022-12-19T09:53:20.506Z,6.90
2022-12-19T09:55:50.442Z,7.00
2022-12-19T09:58:29.019Z,7.00
2022-12-19T10:00:59.953Z,7.10
2022-12-19T10:03:39.153Z,7.20
2022-12-19T10:07:20.591Z,7.10
2022-12-19T10:10:36.268Z,7.10
2022-12-19T10:12:39.327Z,7.10
2022-12-19T10:15:09.848Z,7.20
2022-12-19T10:17:59.543Z,7.20
2022-12-19T10:20:32.993Z,7.30
2022-12-19T10:23:17.613Z,7.30
2022-12-19T10:25:53.633Z,7.40
2022-12-19T10:28:39.105Z,7.50
2022-12-19T10:31:21.408Z,7.50
2022-12-19T10:33:56.947Z,7.50
2022-12-19T10:36:49.148Z,7.60
2022-12-19T10:39:25.754Z,7.70
2022-12-19T10:42:00.283Z,7.70
2022-12-19T10:44:30.592Z,7.70
2022-12-19T10:46:58.917Z,7.70
2022-12-19T10:49:28.826Z,7.70
2022-12-19T10:52:03.346Z,7.80
2022-12-19T10:54:44.004Z,7.90
2022-12-19T10:57:20.205Z,7.90
2022-12-19T10:59:57.280Z,7.80
2022-12-19T11:02:36.656Z,7.80
2022-12-19T11:05:06.884Z,7.80
2022-12-19T11:07:36.589Z,7.80
2022-12-19T11:11:03.945Z,7.90
2022-12-19T11:16:46.539Z,7.90
2022-12-19T11:21:06.082Z,7.90
2022-12-19T11:29:16.903Z,8.00
2022-12-19T11:29:32.070Z,8.00
2022-12-19T11:29:43.287Z,8.00
2022-12-19T11:30:06.371Z,7.90
2022-12-19T11:33:20.061Z,8.20
2022-12-19T11:35:51.220Z,8.20
2022-12-19T11:38:28.047Z,8.10
2022-12-19T11:41:00.147Z,8.10
2022-12-19T11:43:48.279Z,8.10
2022-12-19T11:46:27.987Z,8.10
2022-12-19T11:49:00.903Z,8.00
2022-12-19T11:51:35.843Z,8.00
2022-12-19T11:54:13.258Z,8.10
2022-12-19T11:56:43.170Z,8.10
2022-12-19T11:59:19.678Z,8.10
2022-12-19T12:02:10.077Z,8.10
2022-12-19T12:05:09.307Z,8.10
2022-12-19T12:08:55.198Z,8.00
2022-12-19T12:14:06.242Z,8.00
2022-12-19T12:20:22.763Z,8.00
2022-12-19T12:26:38.724Z,8.00
2022-12-19T12:31:04.927Z,8.00
2022-12-19T12:31:32.067Z,8.10
2022-12-19T12:31:41.322Z,8.10
2022-12-19T12:31:43.410Z,8.10
2022-12-19T12:35:38.454Z,8.10
2022-12-19T12:37:15.816Z,8.10
2022-12-19T12:41:11.308Z,8.10
2022-12-19T12:43:56.087Z,8.20
2022-12-19T12:46:29.860Z,8.20
2022-12-19T12:49:04.163Z,8.20
2022-12-19T12:51:33.999Z,8.20
2022-12-19T12:54:07.501Z,8.30
2022-12-19T12:56:37.060Z,8.30
2022-12-19T12:59:21.056Z,8.30
2022-12-19T13:01:55.910Z,8.30
2022-12-19T13:04:31.545Z,8.30
2022-12-19T13:07:16.162Z,8.40
2022-12-19T13:09:44.907Z,8.40
2022-12-19T13:12:39.001Z,8.50
2022-12-19T13:15:39.721Z,8.50
2022-12-19T13:18:38.801Z,8.50
2022-12-19T13:21:10.079Z,8.50
2022-12-19T13:23:47.733Z,8.60
2022-12-19T13:26:39.066Z,8.60
2022-12-19T13:29:30.960Z,8.60
2022-12-19T13:32:20.319Z,8.60
2022-12-19T13:35:06.925Z,8.70
2022-12-19T13:39:54.163Z,8.60
2022-12-19T13:40:56.683Z,8.60
2022-12-19T13:43:47.420Z,8.60
2022-12-19T13:46:39.563Z,8.60
2022-12-19T13:49:11.938Z,8.70
2022-12-19T13:51:48.675Z,8.60
2022-12-19T13:54:22.924Z,8.70
2022-12-19T13:56:51.821Z,8.60
2022-12-19T13:59:22.606Z,8.60
2022-12-19T14:01:53.220Z,8.60
2022-12-19T14:04:29.350Z,8.60
2022-12-19T14:07:02.624Z,8.60
2022-12-19T14:11:28.916Z,8.60
2022-12-19T14:13:56.861Z,8.60
2022-12-19T14:15:35.879Z,8.60
2022-12-19T14:18:42.857Z,8.60
2022-12-19T14:22:04.004Z,8.60
2022-12-19T14:24:17.832Z,8.50
2022-12-19T14:28:24.348Z,8.50
2022-12-19T14:30:26.491Z,8.50
2022-12-19T14:33:44.776Z,8.40
2022-12-19T14:36:05.844Z,8.40
2022-12-19T14:39:22.890Z,8.40
2022-12-19T14:41:38.052Z,8.30
2022-12-19T14:52:34.730Z,8.30
2022-12-19T14:54:10.929Z,8.10
2022-12-19T14:54:15.600Z,8.20
2022-12-19T14:54:38.005Z,8.00
2022-12-19T14:56:13.011Z,7.90
2022-12-19T14:58:54.153Z,7.90
2022-12-19T15:01:25.717Z,7.80
2022-12-19T15:04:48.340Z,7.70
2022-12-19T15:07:07.657Z,7.60
2022-12-19T15:11:06.714Z,7.60
2022-12-19T15:14:51.282Z,7.60
2022-12-19T15:15:46.193Z,7.60
2022-12-19T15:18:24.314Z,7.50
2022-12-19T15:20:53.589Z,7.60
2022-12-19T15:23:22.921Z,7.60
2022-12-19T15:26:08.770Z,7.60
2022-12-19T15:28:42.891Z,7.60
2022-12-19T15:31:26.966Z,7.60
2022-12-19T15:36:43.859Z,7.60
2022-12-19T15:39:12.183Z,7.70
2022-12-19T15:41:40.596Z,7.70
2022-12-19T15:44:11.243Z,7.60
2022-12-19T15:46:48.177Z,7.70
2022-12-19T15:49:17.707Z,7.70
2022-12-19T15:51:45.962Z,7.60
2022-12-19T15:54:47.141Z,7.60
2022-12-19T15:57:02.967Z,7.60
2022-12-19T15:59:37.333Z,7.70
2022-12-19T16:02:17.550Z,7.60
2022-12-19T16:04:48.091Z,7.60
2022-12-19T16:07:17.940Z,7.60
2022-12-19T16:09:47.088Z,7.60
2022-12-19T16:12:17.847Z,7.60
2022-12-19T16:14:47.282Z,7.60
2022-12-19T16:17:21.310Z,7.60
2022-12-19T16:19:51.181Z,7.60
2022-12-19T16:22:21.149Z,7.60
2022-12-19T16:24:50.015Z,7.60
2022-12-19T16:27:25.410Z,7.60
2022-12-19T16:29:54.544Z,7.60
2022-12-19T16:32:25.585Z,7.70
2022-12-19T16:34:54.456Z,7.70
2022-12-19T16:37:25.825Z,7.70
2022-12-19T16:39:58.609Z,7.70
2022-12-19T16:42:28.403Z,7.70
2022-12-19T16:44:56.797Z,7.80
2022-12-19T16:47:26.504Z,7.80
2022-12-19T16:49:55.025Z,7.80
2022-12-19T16:52:23.400Z,7.80
2022-12-19T16:54:51.602Z,7.80
2022-12-19T16:57:22.550Z,7.70
2022-12-19T16:59:51.642Z,7.70
2022-12-19T17:02:40.106Z,7.70
2022-12-19T17:05:15.350Z,7.70
2022-12-19T17:07:43.629Z,7.80
2022-12-19T17:10:12.278Z,7.90
2022-12-19T17:12:41.233Z,8.00
2022-12-19T17:15:18.825Z,8.10
2022-12-19T17:17:50.014Z,8.10
2022-12-19T17:20:21.903Z,8.10
2022-12-19T17:22:50.866Z,8.30
2022-12-19T17:25:22.957Z,8.30
2022-12-19T17:27:51.844Z,8.30
2022-12-19T17:30:21.160Z,8.40
2022-12-19T17:32:53.380Z,8.40
2022-12-19T17:35:27.721Z,8.50
2022-12-19T17:37:58.404Z,8.60
2022-12-19T17:40:28.789Z,8.50
2022-12-19T17:42:57.408Z,8.50
2022-12-19T17:45:27.827Z,8.60
2022-12-19T17:48:03.119Z,8.60
2022-12-19T17:50:35.757Z,8.60
2022-12-19T17:53:04.484Z,8.60
2022-12-19T17:55:33.642Z,8.60
2022-12-19T17:58:01.988Z,8.60
2022-12-19T18:00:32.953Z,8.60
2022-12-19T18:03:06.632Z,8.60
2022-12-19T18:05:36.999Z,8.70
2022-12-19T18:08:07.894Z,8.60
2022-12-19T18:10:36.273Z,8.70
2022-12-19T18:13:05.621Z,8.70
2022-12-19T18:15:33.861Z,8.70
2022-12-19T18:18:03.412Z,8.70
2022-12-19T18:20:33.583Z,8.70
2022-12-19T18:23:02.485Z,8.70
2022-12-19T18:25:35.232Z,8.70
2022-12-19T18:28:04.107Z,8.70
2022-12-19T18:30:32.441Z,8.70
2022-12-19T18:33:04.211Z,8.80
2022-12-19T18:35:35.026Z,8.70
2022-12-19T18:38:07.009Z,8.70
2022-12-19T18:40:35.382Z,8.70
2022-12-19T18:43:03.582Z,8.80
2022-12-19T18:45:36.443Z,8.80
2022-12-19T18:48:08.430Z,8.80
2022-12-19T18:50:36.888Z,8.70
2022-12-19T18:53:12.250Z,8.70
2022-12-19T18:55:40.692Z,8.60
2022-12-19T18:58:08.929Z,8.60
2022-12-19T19:00:39.873Z,8.70
2022-12-19T19:03:15.837Z,8.70
2022-12-19T19:05:44.586Z,8.70
2022-12-19T19:08:18.007Z,8.60
2022-12-19T19:10:53.016Z,8.60
2022-12-19T19:13:23.327Z,8.60
2022-12-19T19:15:53.871Z,8.60
2022-12-19T19:18:29.872Z,8.60
2022-12-19T19:21:01.267Z,8.60
2022-12-19T19:23:34.606Z,8.60
2022-12-19T19:26:02.979Z,8.70
2022-12-19T19:28:31.251Z,8.60
2022-12-19T19:31:01.639Z,8.60
2022-12-19T19:33:34.401Z,8.60
2022-12-19T19:36:12.129Z,8.70
2022-12-19T19:38:42.269Z,8.70
2022-12-19T19:41:10.703Z,8.80
2022-12-19T19:43:39.267Z,8.80
2022-12-19T19:46:07.533Z,8.80
2022-12-19T19:48:37.225Z,8.80
2022-12-19T19:51:05.811Z,8.80
2022-12-19T19:53:36.018Z,8.90
2022-12-19T19:56:04.940Z,8.90
2022-12-19T19:58:33.285Z,8.90
2022-12-19T20:01:01.673Z,9.00
2022-12-19T20:03:30.152Z,9.00
2022-12-19T20:06:03.233Z,9.00
2022-12-19T20:08:38.851Z,9.00
2022-12-19T20:11:09.228Z,9.00
2022-12-19T20:13:39.140Z,9.00
2022-12-19T20:16:10.209Z,8.90
2022-12-19T20:18:39.914Z,8.80
2022-12-19T20:21:13.599Z,8.90
2022-12-19T20:23:43.519Z,8.90
2022-12-19T20:26:12.954Z,8.90
2022-12-19T20:28:48.310Z,9.00
2022-12-19T20:31:17.259Z,9.10
2022-12-19T20:33:46.246Z,9.20
2022-12-19T20:36:17.674Z,9.20
2022-12-19T20:38:46.158Z,9.30
2022-12-19T20:41:14.621Z,9.30
2022-12-19T20:43:43.232Z,9.30
2022-12-19T20:46:13.093Z,9.30
2022-12-19T20:48:42.008Z,9.30
2022-12-19T20:51:10.982Z,9.20
2022-12-19T20:53:41.684Z,9.20
2022-12-19T20:56:13.866Z,9.20
2022-12-19T20:58:42.193Z,9.20
2022-12-19T21:01:12.450Z,9.20
2022-12-19T21:03:41.545Z,9.20
2022-12-19T21:06:12.282Z,9.40
2022-12-19T21:08:42.324Z,9.40
2022-12-19T21:11:11.447Z,9.50
2022-12-19T21:13:41.090Z,9.30
2022-12-19T21:16:11.974Z,9.30
2022-12-19T21:18:42.153Z,9.30
2022-12-19T21:21:13.611Z,9.30
2022-12-19T21:23:43.607Z,9.30
2022-12-19T21:26:12.109Z,9.30
2022-12-19T21:28:40.579Z,9.30
2022-12-19T21:31:14.509Z,9.30
2022-12-19T21:33:42.907Z,9.30
2022-12-19T21:36:14.183Z,9.30
2022-12-19T21:38:43.899Z,9.30
2022-12-19T21:41:18.513Z,9.30
2022-12-19T21:43:48.715Z,9.30
2022-12-19T21:46:18.232Z,9.30
2022-12-19T21:48:48.317Z,9.40
2022-12-19T21:51:18.556Z,9.40
2022-12-19T21:53:48.460Z,9.50
2022-12-19T21:56:24.718Z,9.50
2022-12-19T21:58:54.687Z,9.50
2022-12-19T22:01:23.393Z,9.50
2022-12-19T22:03:52.563Z,9.50
2022-12-19T22:06:28.292Z,9.50
2022-12-19T22:08:58.521Z,9.50
2022-12-19T22:11:27.279Z,9.60
2022-12-19T22:13:55.810Z,9.60
2022-12-19T22:16:24.148Z,9.60
2022-12-19T22:18:53.096Z,9.70
2022-12-19T22:21:22.309Z,9.70
2022-12-19T22:23:50.862Z,9.70
2022-12-19T22:26:22.375Z,9.80
2022-12-19T22:28:52.524Z,9.80
2022-12-19T22:31:23.613Z,9.80
2022-12-19T22:33:53.696Z,9.80
2022-12-19T22:36:27.988Z,9.80
2022-12-19T22:38:57.893Z,9.80
2022-12-19T22:41:28.205Z,9.80
2022-12-19T22:43:57.104Z,9.70
2022-12-19T22:46:27.324Z,9.70
2022-12-19T22:48:58.140Z,9.70
2022-12-19T22:51:27.528Z,9.70
2022-12-19T22:53:56.055Z,9.70
2022-12-19T22:56:26.482Z,9.70
2022-12-19T22:58:57.818Z,9.70
2022-12-19T23:01:27.770Z,9.70
2022-12-19T23:03:57.503Z,9.70
2022-12-19T23:06:27.345Z,9.60
2022-12-19T23:08:55.797Z,9.60
2022-12-19T23:11:26.899Z,9.70
2022-12-19T23:13:56.661Z,9.70
2022-12-19T23:16:24.983Z,9.70
2022-12-19T23:18:53.243Z,9.70
2022-12-19T23:21:23.577Z,9.80
2022-12-19T23:23:53.952Z,9.80
2022-12-19T23:26:25.172Z,9.80
2022-12-19T23:28:55.554Z,9.80
2022-12-19T23:31:25.994Z,9.80
2022-12-19T23:33:54.899Z,9.80
2022-12-19T23:36:44.959Z,9.90
2022-12-19T23:39:11.982Z,9.90
2022-12-19T23:41:40.856Z,9.90
2022-12-19T23:44:09.310Z,9.90
2022-12-19T23:46:40.227Z,9.90
2022-12-19T23:49:08.610Z,9.90
2022-12-19T23:51:36.858Z,9.90
2022-12-19T23:54:05.262Z,10.00
2022-12-19T23:56:34.129Z,10.00
2022-12-19T23:59:03.103Z,10.00
